Time;durP1;ratioP1;P1;durP2;ratioP2;P2;SDS_P1;SDS_P2;PMS_P1;PMS_P2;Temp;Humidity;BMP_temperature;BMP_pressure;BME280_temperature;BME280_humidity;BME280_pressure;Samples;Min_cycle;Max_cycle;Signal;HPM_P1;HPM_P2
2022/06/08 00:02:05;;;;;;;3.03;2.62;;;;;;;23.43;55.09;99162.91;4350141;32;34370;-84
2022/06/08 00:04:34;;;;;;;2.22;2.03;;;;;;;23.29;55.52;99155.47;4362406;32;33751;-84
2022/06/08 00:07:02;;;;;;;2.95;2.50;;;;;;;23.13;55.84;99169.75;4362425;32;33514;-84
2022/06/08 00:09:29;;;;;;;3.00;2.22;;;;;;;23.04;55.98;99166.16;4349890;32;33695;-84
2022/06/08 00:11:57;;;;;;;2.85;2.08;;;;;;;23.29;55.40;99160.84;4350033;32;33305;-83
2022/06/08 00:14:25;;;;;;;2.90;2.58;;;;;;;23.44;54.84;99170.00;4355612;32;34073;-83
2022/06/08 00:16:53;;;;;;;2.50;2.25;;;;;;;23.02;55.78;99165.47;4361799;32;33763;-82
2022/06/08 00:19:21;;;;;;;3.22;2.20;;;;;;;23.29;55.11;99167.09;4356926;32;33494;-84
2022/06/08 00:21:48;;;;;;;2.83;2.53;;;;;;;23.34;54.94;99169.28;4346616;32;32861;-83
2022/06/08 00:24:18;;;;;;;2.53;1.87;;;;;;;23.30;55.15;99160.69;4335131;32;33984;-83
2022/06/08 00:26:45;;;;;;;4.90;2.37;;;;;;;23.40;55.60;99153.31;4345327;32;33977;-83
2022/06/08 00:29:14;;;;;;;2.25;2.00;;;;;;;23.14;57.13;99148.03;4351732;32;32992;-83
2022/06/08 00:31:42;;;;;;;3.22;2.92;;;;;;;23.21;57.03;99156.28;4349704;32;33720;-83
2022/06/08 00:34:10;;;;;;;4.53;2.33;;;;;;;23.00;57.04;99160.25;4359354;32;33899;-83
2022/06/08 00:36:37;;;;;;;2.35;1.90;;;;;;;22.97;57.17;99162.41;4334538;33;32607;-83
2022/06/08 00:39:05;;;;;;;2.58;2.37;;;;;;;22.97;57.35;99160.56;4330931;32;33050;-84
2022/06/08 00:41:42;;;;;;;4.28;2.60;;;;;;;22.77;58.73;99158.25;4349884;32;33681;-84
2022/06/08 00:44:26;;;;;;;3.20;2.12;;;;;;;23.11;56.67;99156.41;4361916;32;33135;-84
2022/06/08 00:46:56;;;;;;;2.80;2.33;;;;;;;23.25;56.38;99149.56;4364049;32;33673;-84
2022/06/08 00:49:43;;;;;;;2.22;2.00;;;;;;;22.72;58.30;99159.56;4364683;32;34659;-85
2022/06/08 00:52:13;;;;;;;4.55;2.60;;;;;;;22.73;58.35;99181.94;4376914;32;33581;-85
2022/06/08 00:54:47;;;;;;;3.03;2.45;;;;;;;22.16;60.07;99259.53;4364803;32;34396;-85
2022/06/08 00:57:20;;;;;;;3.28;2.20;;;;;;;21.47;62.35;99298.59;4364717;32;33049;-85
2022/06/08 00:59:59;;;;;;;2.78;2.15;;;;;;;21.37;62.46;99268.25;4373893;32;32348;-85
2022/06/08 01:02:28;;;;;;;3.92;2.47;;;;;;;22.22;59.55;99222.13;4350032;32;34473;-86
2022/06/08 01:05:17;;;;;;;3.75;2.50;;;;;;;21.95;60.21;99230.25;4370925;32;33446;-84
2022/06/08 01:07:48;;;;;;;3.83;2.50;;;;;;;22.37;59.43;99218.88;4364660;32;32601;-84
2022/06/08 01:10:21;;;;;;;2.12;1.95;;;;;;;22.36;59.55;99219.88;4376555;32;33911;-84
2022/06/08 01:12:50;;;;;;;9.02;3.12;;;;;;;22.35;58.91;99220.88;4377095;32;33776;-84
2022/06/08 01:15:21;;;;;;;2.10;1.85;;;;;;;22.37;59.07;99224.28;4351684;32;33476;-83
2022/06/08 01:17:51;;;;;;;2.47;2.10;;;;;;;22.64;58.74;99205.28;4370516;32;32684;-83
2022/06/08 01:20:20;;;;;;;4.07;2.08;;;;;;;22.14;59.67;99211.31;4371982;32;33679;-83
2022/06/08 01:22:48;;;;;;;3.28;2.97;;;;;;;22.10;60.41;99214.44;4376523;32;34718;-83
2022/06/08 01:25:16;;;;;;;4.57;2.17;;;;;;;21.79;61.20;99208.56;4374499;32;34820;-83
2022/06/08 01:27:54;;;;;;;2.25;2.03;;;;;;;22.30;59.74;99202.50;4363152;32;33222;-83
2022/06/08 01:30:22;;;;;;;1.98;1.87;;;;;;;21.90;60.94;99208.37;4359949;32;32780;-84
2022/06/08 01:33:08;;;;;;;2.20;1.50;;;;;;;22.03;61.00;99216.03;4377451;32;34681;-84
2022/06/08 01:36:15;;;;;;;2.10;1.90;;;;;;;22.17;60.91;99207.44;4363670;32;33089;-85
2022/06/08 01:39:30;;;;;;;2.20;1.77;;;;;;;21.45;64.35;99195.81;4364441;32;33201;-83
2022/06/08 01:42:22;;;;;;;3.45;2.28;;;;;;;21.51;64.15;99200.59;4343474;33;34651;-83
2022/06/08 01:48:11;;;;;;;3.58;1.60;;;;;;;21.34;64.96;99178.06;4338260;33;34864;-85
2022/06/08 01:50:54;;;;;;;4.28;2.15;;;;;;;21.71;63.67;99180.66;4360570;32;33723;-84
2022/06/08 01:53:34;;;;;;;6.40;2.12;;;;;;;21.58;64.24;99163.22;4354614;32;33816;-84
2022/06/08 01:56:14;;;;;;;3.55;2.47;;;;;;;21.43;65.39;99166.44;4350856;32;33846;-83
2022/06/08 01:58:55;;;;;;;5.47;2.42;;;;;;;21.32;66.01;99179.22;4335953;33;33608;-83
2022/06/08 02:01:36;;;;;;;3.17;2.30;;;;;;;21.47;65.54;99189.31;4350896;32;32926;-84
2022/06/08 02:04:26;;;;;;;3.53;2.37;;;;;;;21.61;64.55;99198.69;4362823;32;34356;-83
2022/06/08 02:07:11;;;;;;;3.25;2.30;;;;;;;21.61;64.71;99200.53;4363049;32;34292;-83
2022/06/08 02:09:46;;;;;;;2.33;1.80;;;;;;;21.73;64.17;99200.13;4355558;32;33063;-83
2022/06/08 02:12:14;;;;;;;3.30;1.92;;;;;;;21.53;64.54;99197.75;4355868;32;33406;-84
2022/06/08 02:15:06;;;;;;;4.32;2.20;;;;;;;21.53;64.96;99214.72;4362786;32;33508;-84
2022/06/08 02:17:43;;;;;;;3.17;1.92;;;;;;;21.64;64.73;99225.22;4349455;32;33100;-84
2022/06/08 02:20:36;;;;;;;2.58;2.37;;;;;;;21.71;64.71;99218.25;4338523;32;33684;-84
2022/06/08 02:23:16;;;;;;;7.37;2.30;;;;;;;21.84;64.27;99222.41;4355033;32;33631;-84
2022/06/08 02:25:51;;;;;;;4.87;1.83;;;;;;;21.82;63.69;99219.03;4357347;32;33055;-83
2022/06/08 02:28:30;;;;;;;2.28;2.00;;;;;;;21.73;64.01;99216.25;4354914;32;34003;-83
2022/06/08 02:31:13;;;;;;;2.35;2.15;;;;;;;21.47;64.88;99218.00;4354405;32;33894;-83
2022/06/08 02:36:37;;;;;;;3.53;2.20;;;;;;;21.20;65.86;99211.59;4358275;32;32843;-85
2022/06/08 02:39:12;;;;;;;2.20;2.00;;;;;;;21.15;66.05;99218.41;4350677;32;33638;-83
2022/06/08 02:41:42;;;;;;;3.03;2.50;;;;;;;20.93;67.83;99228.53;4360135;32;34113;-83
2022/06/08 02:44:15;;;;;;;2.95;2.50;;;;;;;21.19;66.80;99234.09;4335940;33;33640;-83
2022/06/08 02:46:58;;;;;;;4.53;2.60;;;;;;;21.10;66.90;99232.28;4357982;32;33478;-83
2022/06/08 02:49:28;;;;;;;3.50;2.70;;;;;;;20.93;67.37;99223.16;4363998;32;33720;-83
2022/06/08 02:52:00;;;;;;;4.12;2.78;;;;;;;21.17;66.82;99209.25;4350418;32;33703;-83
2022/06/08 02:54:28;;;;;;;5.87;3.00;;;;;;;21.08;67.13;99188.66;4354441;32;33680;-83
2022/06/08 02:57:09;;;;;;;4.10;2.75;;;;;;;20.83;68.33;99174.06;4333245;32;34118;-83
2022/06/08 02:59:56;;;;;;;3.20;2.83;;;;;;;20.39;69.87;99175.59;4364237;32;34716;-83
2022/06/08 03:02:31;;;;;;;4.05;3.08;;;;;;;20.42;70.03;99178.81;4362893;32;34289;-83
2022/06/08 03:05:08;;;;;;;3.85;2.87;;;;;;;20.52;70.09;99184.19;4350753;32;33248;-83
2022/06/08 03:07:46;;;;;;;3.45;2.60;;;;;;;20.60;69.29;99200.37;4340506;32;33977;-84
2022/06/08 03:10:15;;;;;;;3.35;3.05;;;;;;;20.66;68.73;99189.09;4350489;32;34366;-84
2022/06/08 03:12:49;;;;;;;3.60;2.50;;;;;;;20.41;69.41;99205.75;4345329;32;33234;-85
2022/06/08 03:15:22;;;;;;;3.22;2.50;;;;;;;20.52;69.14;99208.34;4338095;32;33244;-83
2022/06/08 03:17:51;;;;;;;11.90;2.87;;;;;;;20.59;69.09;99203.22;4355371;32;34107;-82
2022/06/08 03:20:22;;;;;;;3.87;2.50;;;;;;;20.45;69.34;99212.53;4358333;32;32233;-83
2022/06/08 03:22:49;;;;;;;6.18;2.62;;;;;;;20.39;70.17;99221.16;4362442;32;34089;-83
2022/06/08 03:25:18;;;;;;;4.43;2.83;;;;;;;20.50;69.48;99225.53;4355510;32;33583;-82
2022/06/08 03:27:46;;;;;;;3.97;2.58;;;;;;;20.36;70.06;99221.44;4350127;32;33751;-82
2022/06/08 03:30:17;;;;;;;3.03;2.83;;;;;;;20.53;69.34;99225.28;4361977;32;33093;-82
2022/06/08 03:32:45;;;;;;;2.85;2.55;;;;;;;20.45;69.84;99234.00;4329582;32;32676;-82
2022/06/08 03:35:13;;;;;;;4.70;2.42;;;;;;;20.69;68.34;99229.03;4357468;32;33296;-84
2022/06/08 03:37:42;;;;;;;4.85;3.45;;;;;;;20.49;69.60;99234.59;4350037;32;32782;-83
2022/06/08 03:40:11;;;;;;;3.00;2.50;;;;;;;20.28;70.39;99234.75;4350334;32;34419;-83
2022/06/08 03:42:38;;;;;;;3.80;2.97;;;;;;;20.45;70.03;99234.00;4356301;32;33763;-82
2022/06/08 03:49:11;;;;;;;4.55;2.45;;;;;;;20.75;68.44;99233.00;4370232;32;34319;-84
2022/06/08 03:51:40;;;;;;;3.75;2.70;;;;;;;20.63;68.66;99218.03;4365547;32;33379;-83
2022/06/08 03:54:16;;;;;;;3.12;2.85;;;;;;;20.48;69.35;99217.66;4372951;32;32599;-83
2022/06/08 03:56:47;;;;;;;3.42;3.12;;;;;;;20.57;69.41;99202.53;4366513;32;32758;-83
2022/06/08 03:59:16;;;;;;;3.30;2.90;;;;;;;20.45;69.56;99207.19;4374559;32;33885;-83
2022/06/08 04:01:44;;;;;;;3.47;3.17;;;;;;;20.24;70.65;99206.53;4344938;32;34114;-83
2022/06/08 04:04:13;;;;;;;2.97;2.75;;;;;;;20.51;69.38;99203.97;4352158;32;33829;-83
2022/06/08 04:06:40;;;;;;;3.47;3.10;;;;;;;20.52;69.57;99197.59;4371771;32;33915;-83
2022/06/08 04:12:35;;;;;;;3.12;2.90;;;;;;;20.83;68.47;99214.31;4375340;32;34030;-83
2022/06/08 04:15:05;;;;;;;3.85;2.87;;;;;;;20.88;68.00;99219.22;4361286;32;34754;-83
2022/06/08 04:17:33;;;;;;;3.97;2.70;;;;;;;21.01;67.64;99227.81;4374503;32;32900;-83
2022/06/08 04:22:35;;;;;;;3.60;3.05;;;;;;;20.76;69.18;99220.41;4367976;32;34790;-83
2022/06/08 04:28:54;;;;;;;3.53;2.80;;;;;;;20.97;68.84;99221.03;4309061;32;2034496;-83
2022/06/08 04:31:23;;;;;;;3.53;3.17;;;;;;;20.96;68.82;99222.03;4374479;32;34269;-83
2022/06/08 04:33:53;;;;;;;5.87;3.53;;;;;;;21.09;68.47;99219.88;4353452;32;34171;-84
2022/06/08 04:36:22;;;;;;;3.35;2.95;;;;;;;21.16;68.45;99223.63;4375976;32;33604;-84
2022/06/08 04:38:50;;;;;;;6.50;3.08;;;;;;;21.28;68.36;99223.47;4362274;32;34215;-85
2022/06/08 04:41:22;;;;;;;4.60;3.08;;;;;;;21.50;68.21;99214.16;4337600;32;33280;-84
2022/06/08 04:43:53;;;;;;;3.80;2.90;;;;;;;21.60;68.25;99210.44;4363177;32;33883;-84
2022/06/08 04:46:25;;;;;;;3.20;2.67;;;;;;;21.68;67.40;99205.12;4361907;32;33708;-85
2022/06/08 04:48:54;;;;;;;3.25;2.95;;;;;;;21.44;68.13;99207.56;4347569;32;34328;-84
2022/06/08 04:51:29;;;;;;;4.80;3.22;;;;;;;21.75;67.29;99199.16;4360879;32;35561;-84
2022/06/08 04:54:01;;;;;;;3.12;2.85;;;;;;;21.68;66.94;99202.44;4361784;32;33887;-84
2022/06/08 04:56:30;;;;;;;3.47;3.17;;;;;;;21.92;67.05;99195.59;4367339;32;33488;-84
2022/06/08 04:58:59;;;;;;;3.10;2.80;;;;;;;21.93;67.63;99199.97;4354091;32;35281;-85
2022/06/08 05:01:29;;;;;;;3.83;3.42;;;;;;;22.28;65.53;99198.31;4352785;32;33524;-84
2022/06/08 05:03:59;;;;;;;3.80;2.65;;;;;;;22.06;66.50;99192.37;4352036;32;34054;-86
2022/06/08 05:06:28;;;;;;;3.85;3.40;;;;;;;21.93;66.62;99205.34;4350035;32;34224;-84
2022/06/08 05:08:57;;;;;;;2.90;2.70;;;;;;;22.16;66.23;99201.22;4352459;32;33393;-86
2022/06/08 05:11:27;;;;;;;2.60;2.40;;;;;;;22.14;65.75;99200.56;4377062;32;34600;-85
2022/06/08 05:13:55;;;;;;;2.70;2.50;;;;;;;22.28;65.56;99211.75;4339881;32;33199;-85
2022/06/08 05:16:24;;;;;;;3.33;3.00;;;;;;;22.38;64.81;99212.50;4370542;32;34481;-85
2022/06/08 05:18:53;;;;;;;4.10;2.47;;;;;;;22.73;64.01;99208.87;4360617;32;33126;-85
2022/06/08 05:21:23;;;;;;;3.95;3.20;;;;;;;22.60;64.77;99212.00;4363887;32;33831;-86
2022/06/08 05:23:53;;;;;;;2.47;2.15;;;;;;;22.51;64.80;99206.72;4352152;32;33356;-86
2022/06/08 05:26:26;;;;;;;4.85;2.83;;;;;;;22.72;64.24;99218.78;4367479;32;34221;-86
2022/06/08 05:28:54;;;;;;;2.97;2.65;;;;;;;23.09;62.40;99220.38;4365034;32;32332;-86
2022/06/08 05:31:35;;;;;;;3.65;2.20;;;;;;;22.58;63.54;99232.81;4371592;32;33167;-86
2022/06/08 05:34:09;;;;;;;2.40;2.00;;;;;;;22.56;63.91;99229.47;4349798;32;34255;-85
2022/06/08 05:36:38;;;;;;;2.67;2.22;;;;;;;22.98;62.84;99231.44;4372038;32;34178;-83
2022/06/08 05:39:07;;;;;;;2.62;2.42;;;;;;;22.85;63.44;99239.06;4374114;32;32708;-84
2022/06/08 05:41:35;;;;;;;2.50;2.30;;;;;;;23.15;62.00;99229.66;4367432;32;33536;-84
2022/06/08 05:44:05;;;;;;;3.05;2.78;;;;;;;22.80;63.53;99222.53;4357222;32;32980;-84
2022/06/08 05:46:34;;;;;;;2.53;2.33;;;;;;;22.53;63.70;99229.75;4368572;32;33343;-84
2022/06/08 05:49:04;;;;;;;10.20;2.35;;;;;;;22.64;63.73;99232.19;4363186;32;33345;-84
2022/06/08 05:51:36;;;;;;;3.17;2.37;;;;;;;22.68;63.40;99232.72;4362292;32;33830;-84
2022/06/08 05:54:06;;;;;;;3.25;2.58;;;;;;;22.68;63.57;99238.94;4367508;32;34156;-84
2022/06/08 05:56:40;;;;;;;3.10;2.75;;;;;;;22.46;64.05;99253.78;4367715;32;34849;-85
2022/06/08 05:59:13;;;;;;;4.45;2.85;;;;;;;23.05;62.79;99262.09;4363960;32;33455;-86
2022/06/08 06:01:43;;;;;;;3.30;3.00;;;;;;;22.99;63.10;99263.56;4359713;32;32382;-85
2022/06/08 06:04:12;;;;;;;4.12;2.72;;;;;;;22.88;64.08;99271.03;4364463;32;34715;-85
2022/06/08 06:06:45;;;;;;;5.35;3.25;;;;;;;23.02;62.84;99269.63;4368821;32;34042;-85
2022/06/08 06:09:17;;;;;;;8.10;2.67;;;;;;;23.38;61.64;99257.69;4372276;32;32226;-85
2022/06/08 06:11:46;;;;;;;4.57;2.72;;;;;;;23.41;61.07;99260.09;4348714;32;33308;-85
2022/06/08 06:14:20;;;;;;;5.15;2.97;;;;;;;23.29;61.87;99250.59;4361303;32;33690;-86
2022/06/08 06:16:48;;;;;;;6.43;3.10;;;;;;;23.00;62.38;99259.03;4345435;32;32818;-85
2022/06/08 06:19:20;;;;;;;3.40;3.12;;;;;;;22.91;62.79;99259.97;4340198;32;32902;-85
2022/06/08 06:21:57;;;;;;;4.00;3.28;;;;;;;22.86;62.77;99259.59;4371904;32;33683;-85
2022/06/08 06:24:25;;;;;;;4.32;3.28;;;;;;;23.24;61.39;99245.69;4358548;32;33851;-85
2022/06/08 06:26:53;;;;;;;2.53;2.33;;;;;;;23.13;62.07;99250.53;4358310;32;34086;-86
2022/06/08 06:29:21;;;;;;;3.20;2.90;;;;;;;23.03;62.83;99247.13;4362963;32;33639;-86
2022/06/08 06:31:58;;;;;;;4.30;3.55;;;;;;;23.04;63.04;99243.41;4366675;32;32807;-86
2022/06/08 06:34:29;;;;;;;3.28;3.00;;;;;;;23.17;62.13;99249.22;4357489;32;33920;-85
2022/06/08 06:36:58;;;;;;;3.23;2.90;;;;;;;23.31;62.18;99258.50;4351919;32;34421;-85
2022/06/08 06:39:27;;;;;;;3.40;3.10;;;;;;;23.63;61.00;99247.00;4377365;32;34391;-86
2022/06/08 06:41:57;;;;;;;6.18;3.45;;;;;;;23.36;61.53;99242.69;4365701;32;34234;-85
2022/06/08 06:44:26;;;;;;;3.95;3.55;;;;;;;23.39;61.37;99243.22;4375044;32;33376;-85
2022/06/08 06:47:00;;;;;;;3.83;3.53;;;;;;;23.25;61.91;99244.66;4356754;32;33853;-85
2022/06/08 06:49:29;;;;;;;3.67;3.30;;;;;;;23.49;61.85;99243.09;4375660;32;33695;-85
2022/06/08 06:51:59;;;;;;;4.37;2.97;;;;;;;23.32;62.47;99241.34;4365564;32;33442;-85
2022/06/08 06:54:28;;;;;;;3.65;3.22;;;;;;;23.37;61.93;99239.00;4365079;32;33606;-85
2022/06/08 06:56:56;;;;;;;4.20;3.42;;;;;;;23.43;62.34;99230.28;4365442;32;34016;-85
2022/06/08 07:02:09;;;;;;;4.97;3.30;;;;;;;23.85;60.91;99207.84;4376108;32;34531;-85
2022/06/08 07:04:38;;;;;;;3.22;2.92;;;;;;;24.05;61.21;99211.91;4363808;32;33925;-86
2022/06/08 07:07:06;;;;;;;4.57;3.42;;;;;;;24.36;60.56;99200.47;4360990;32;32825;-85
2022/06/08 07:09:38;;;;;;;2.90;2.60;;;;;;;24.74;59.60;99197.03;4377458;32;32290;-85
2022/06/08 07:12:08;;;;;;;3.53;2.90;;;;;;;24.84;58.76;99190.63;4366497;32;33460;-85
2022/06/08 07:14:36;;;;;;;3.28;2.97;;;;;;;24.66;59.20;99190.81;4352952;32;33899;-85
2022/06/08 07:17:05;;;;;;;2.90;2.70;;;;;;;24.57;60.11;99189.16;4370713;32;32761;-85
2022/06/08 07:19:33;;;;;;;3.40;2.92;;;;;;;24.74;59.00;99191.66;4352936;32;33787;-85
2022/06/08 07:22:01;;;;;;;2.72;2.40;;;;;;;25.22;57.07;99191.69;4356643;32;33814;-85
2022/06/08 07:24:33;;;;;;;3.10;2.90;;;;;;;25.37;58.02;99186.37;4352882;32;33428;-85
2022/06/08 07:27:04;;;;;;;4.43;3.28;;;;;;;25.53;57.31;99186.28;4368873;32;34185;-85
2022/06/08 07:29:34;;;;;;;4.15;3.25;;;;;;;25.51;55.93;99183.75;4365730;32;33653;-85
2022/06/08 07:32:04;;;;;;;4.68;2.95;;;;;;;25.44;56.29;99171.13;4377369;32;34224;-86
2022/06/08 07:34:31;;;;;;;3.70;3.37;;;;;;;25.44;56.45;99171.13;4367099;32;33092;-85
2022/06/08 07:37:07;;;;;;;3.10;2.80;;;;;;;25.71;55.45;99162.50;4354145;32;35483;-85
2022/06/08 07:39:38;;;;;;;3.17;2.87;;;;;;;25.79;54.77;99176.00;4350900;32;33144;-85
2022/06/08 07:42:06;;;;;;;3.65;2.85;;;;;;;25.80;54.34;99171.44;4361667;32;32564;-85
2022/06/08 07:44:34;;;;;;;4.10;2.80;;;;;;;25.81;55.54;99172.28;4339172;32;32954;-85
2022/06/08 07:47:02;;;;;;;3.87;2.85;;;;;;;26.08;55.47;99173.59;4374579;32;33828;-85
2022/06/08 07:49:37;;;;;;;4.50;4.10;;;;;;;26.30;54.93;99164.59;4366381;32;33380;-85
2022/06/08 07:52:16;;;;;;;4.07;3.72;;;;;;;26.43;50.45;99172.97;4372552;32;33980;-85
2022/06/08 07:54:45;;;;;;;5.85;4.30;;;;;;;25.87;53.72;99175.09;4362402;32;34668;-85
2022/06/08 07:57:20;;;;;;;3.40;3.10;;;;;;;26.24;53.15;99179.69;4326178;32;32856;-85
2022/06/08 07:59:48;;;;;;;4.05;3.65;;;;;;;26.38;51.94;99177.22;4376967;32;32443;-85
2022/06/08 08:02:17;;;;;;;5.50;4.47;;;;;;;26.36;51.07;99177.41;4371050;32;33601;-85
2022/06/08 08:04:46;;;;;;;5.20;3.90;;;;;;;25.74;52.09;99183.78;4373238;32;33590;-85
2022/06/08 08:07:15;;;;;;;4.55;3.95;;;;;;;25.95;52.26;99168.78;4374123;32;33859;-85
2022/06/08 08:09:43;;;;;;;7.60;3.78;;;;;;;26.19;51.71;99167.75;4352604;32;32436;-85
2022/06/08 08:12:12;;;;;;;5.30;4.78;;;;;;;26.38;51.92;99175.34;4375133;32;33749;-85
2022/06/08 08:14:40;;;;;;;4.35;3.80;;;;;;;26.50;50.70;99173.91;4373012;32;34118;-85
2022/06/08 08:17:09;;;;;;;5.68;4.47;;;;;;;26.27;51.01;99173.94;4361087;32;33612;-85
2022/06/08 08:19:38;;;;;;;5.00;4.47;;;;;;;26.30;50.55;99176.28;4373955;32;33286;-85
2022/06/08 08:22:10;;;;;;;5.03;4.43;;;;;;;26.49;50.69;99176.78;4362829;32;32752;-85
2022/06/08 08:24:39;;;;;;;5.03;4.53;;;;;;;26.56;51.69;99177.75;4361837;32;33890;-85
2022/06/08 08:27:07;;;;;;;4.78;4.30;;;;;;;26.12;51.39;99170.34;4374424;32;34419;-85
2022/06/08 08:29:35;;;;;;;6.10;4.85;;;;;;;26.18;53.32;99164.19;4368034;32;33609;-85
2022/06/08 08:32:04;;;;;;;7.80;5.82;;;;;;;26.51;53.26;99172.88;4376889;32;34271;-85
2022/06/08 08:34:32;;;;;;;5.82;4.97;;;;;;;26.74;49.56;99170.09;4370726;32;33693;-85
2022/06/08 08:37:01;;;;;;;7.37;4.47;;;;;;;26.44;50.82;99176.50;4344753;32;34122;-85
2022/06/08 08:39:29;;;;;;;11.38;4.45;;;;;;;26.87;50.26;99163.19;4359845;32;33112;-85
2022/06/08 08:44:55;;;;;;;5.78;5.20;;;;;;;27.22;50.08;99167.03;4351961;32;33542;-85
2022/06/08 08:47:35;;;;;;;4.85;3.95;;;;;;;27.33;47.84;99168.41;4352217;32;33289;-85
2022/06/08 08:50:22;;;;;;;4.30;3.90;;;;;;;27.23;48.60;99169.53;4371370;32;33051;-86
2022/06/08 08:52:52;;;;;;;4.85;3.80;;;;;;;27.42;48.96;99178.94;4374549;32;32617;-85
2022/06/08 08:55:34;;;;;;;5.20;4.57;;;;;;;27.16;49.01;99168.63;4360247;32;33809;-85
2022/06/08 08:58:12;;;;;;;8.40;4.53;;;;;;;27.52;47.83;99170.50;4362644;32;34271;-85
2022/06/08 09:00:52;;;;;;;8.98;6.10;;;;;;;27.69;48.98;99166.53;4370895;32;33387;-85
2022/06/08 09:03:39;;;;;;;5.20;4.60;;;;;;;27.14;48.72;99167.97;4373072;32;33112;-85
2022/06/08 09:06:20;;;;;;;5.50;4.87;;;;;;;27.45;51.83;99158.75;4369299;32;34046;-85
2022/06/08 09:08:52;;;;;;;9.95;5.50;;;;;;;27.65;49.77;99165.22;4368911;32;34874;-85
2022/06/08 09:11:25;;;;;;;6.10;5.03;;;;;;;27.96;49.13;99164.09;4364128;32;32214;-85
2022/06/08 09:13:56;;;;;;;5.85;4.80;;;;;;;28.49;47.84;99162.72;4376122;32;34737;-90
2022/06/08 09:16:39;;;;;;;9.07;5.68;;;;;;;28.88;47.05;99158.56;4352332;32;32819;-89
2022/06/08 09:19:36;;;;;;;6.00;5.15;;;;;;;28.67;46.06;99154.03;4376825;32;33438;-90
2022/06/08 09:22:06;;;;;;;5.85;5.30;;;;;;;28.43;46.94;99157.22;4364195;32;33126;-89
2022/06/08 09:24:55;;;;;;;6.37;5.72;;;;;;;27.69;47.82;99158.41;4376774;32;33815;-90
2022/06/08 09:27:35;;;;;;;7.70;5.30;;;;;;;27.78;48.49;99151.00;4352103;32;32704;-90
2022/06/08 09:30:09;;;;;;;6.28;5.68;;;;;;;27.77;49.87;99143.88;4339766;32;32848;-89
2022/06/08 09:32:38;;;;;;;5.80;4.95;;;;;;;27.47;48.40;99149.38;4351803;32;32512;-89
2022/06/08 09:35:23;;;;;;;6.72;5.55;;;;;;;27.28;51.25;99144.59;4376628;32;33587;-89
2022/06/08 09:37:53;;;;;;;8.68;5.80;;;;;;;27.70;48.68;99134.81;4352160;32;34657;-89
2022/06/08 09:40:37;;;;;;;5.30;4.68;;;;;;;27.95;48.07;99129.88;4352864;32;34653;-90
2022/06/08 09:43:23;;;;;;;5.72;4.78;;;;;;;27.96;49.13;99115.25;4365079;32;34276;-89
2022/06/08 09:45:54;;;;;;;7.30;5.70;;;;;;;28.27;46.41;99110.31;4364008;32;33211;-89
2022/06/08 09:51:53;;;;;;;5.20;4.70;;;;;;;28.71;45.63;99100.16;4373805;32;33491;-89
2022/06/08 09:54:32;;;;;;;5.30;4.90;;;;;;;28.57;44.89;99101.97;4361424;32;33882;-90
2022/06/08 09:57:11;;;;;;;5.45;4.95;;;;;;;28.37;45.48;99084.72;4361305;32;34180;-89
2022/06/08 10:00:08;;;;;;;5.72;5.15;;;;;;;28.11;47.17;99079.91;4349742;32;32173;-89
2022/06/08 10:03:19;;;;;;;5.43;5.03;;;;;;;28.58;46.36;99081.91;4362403;32;32738;-91
2022/06/08 10:06:36;;;;;;;6.57;4.82;;;;;;;28.35;46.21;99084.09;4374972;32;32224;-90
2022/06/08 10:09:10;;;;;;;6.28;4.60;;;;;;;28.53;45.78;99068.09;4375768;32;32512;-90
2022/06/08 10:16:14;;;;;;;4.25;3.95;;;;;;;28.68;44.36;99065.28;4364759;32;35798;-90
2022/06/08 10:18:48;;;;;;;9.13;4.72;;;;;;;28.50;46.43;99063.91;4363337;32;33681;-90
2022/06/08 10:21:23;;;;;;;7.18;5.03;;;;;;;28.57;45.56;99061.22;4338909;32;32767;-89
2022/06/08 10:24:18;;;;;;;8.00;4.60;;;;;;;28.84;45.28;99063.03;4363547;32;34016;-89
2022/06/08 10:26:58;;;;;;;5.10;4.62;;;;;;;28.69;44.52;99056.06;4350914;32;34389;-89
2022/06/08 10:29:45;;;;;;;5.20;4.18;;;;;;;29.43;45.01;99052.56;4352466;32;32790;-90
2022/06/08 10:33:09;;;;;;;4.12;3.80;;;;;;;29.49;43.38;99036.25;4363053;32;33718;-89
2022/06/08 10:35:43;;;;;;;7.05;4.37;;;;;;;29.09;43.65;99057.91;4359927;32;33130;-89
2022/06/08 10:38:19;;;;;;;5.85;4.57;;;;;;;28.96;45.54;99054.31;4363083;32;33880;-90
2022/06/08 10:44:05;;;;;;;4.55;4.00;;;;;;;29.23;42.04;99037.03;4364211;32;33855;-89
2022/06/08 10:46:42;;;;;;;4.68;4.05;;;;;;;28.92;42.63;99039.44;4351154;32;32883;-88
2022/06/08 10:49:49;;;;;;;4.03;3.03;;;;;;;29.51;42.04;99031.44;4338267;32;33007;-89
2022/06/08 10:52:17;;;;;;;3.80;3.40;;;;;;;29.21;43.30;99022.84;4350823;32;32802;-89
2022/06/08 10:55:12;;;;;;;3.50;3.28;;;;;;;29.74;39.84;99022.91;4363080;32;33667;-89
2022/06/08 10:57:50;;;;;;;3.25;2.97;;;;;;;29.05;39.05;99029.47;4372492;32;33285;-87
2022/06/08 11:00:47;;;;;;;5.25;3.17;;;;;;;29.20;39.82;99032.03;4349224;33;33893;-88
2022/06/08 11:03:40;;;;;;;3.58;3.28;;;;;;;29.27;38.08;99015.72;4321899;33;33213;-87
2022/06/08 11:06:11;;;;;;;4.50;3.22;;;;;;;29.38;36.71;99011.56;4348127;33;33883;-90
2022/06/08 11:08:51;;;;;;;3.17;2.87;;;;;;;29.79;36.11;99014.94;4323704;33;33663;-88
2022/06/08 11:11:40;;;;;;;4.35;2.97;;;;;;;30.06;36.68;99015.78;4336991;32;34145;-88
2022/06/08 11:14:25;;;;;;;3.28;3.03;;;;;;;30.28;36.48;99012.81;4324000;33;32823;-89
2022/06/08 11:16:57;;;;;;;3.28;2.97;;;;;;;30.24;35.05;99012.44;4346957;33;33762;-89
2022/06/08 11:19:27;;;;;;;3.10;2.80;;;;;;;29.91;36.21;99006.12;4336073;32;33055;-88
2022/06/08 11:22:00;;;;;;;4.43;3.00;;;;;;;29.42;39.48;99001.94;4347963;32;33378;-89
2022/06/08 11:24:42;;;;;;;12.98;2.83;;;;;;;29.01;37.22;99005.66;4338206;32;33544;-91
2022/06/08 11:27:10;;;;;;;3.37;2.60;;;;;;;29.55;37.48;98997.38;4340625;32;32789;-89
2022/06/08 11:29:50;;;;;;;5.12;2.87;;;;;;;29.05;38.87;98996.00;4362968;32;33962;-90
2022/06/08 11:32:52;;;;;;;3.55;3.15;;;;;;;29.39;36.99;98996.91;4350554;32;32818;-89
2022/06/08 11:35:46;;;;;;;3.78;2.28;;;;;;;28.84;38.40;98991.53;4337735;32;33348;-89
2022/06/08 11:38:57;;;;;;;5.65;2.95;;;;;;;29.31;38.67;98989.81;4357856;32;34529;-91
2022/06/08 11:41:39;;;;;;;4.50;2.40;;;;;;;29.02;38.89;98997.28;4364226;32;33803;-91
2022/06/08 11:44:19;;;;;;;7.72;2.50;;;;;;;29.12;37.43;98986.00;4367787;32;33771;-90
2022/06/08 11:47:01;;;;;;;6.37;3.08;;;;;;;29.03;37.22;98998.12;4357972;32;32494;-91
2022/06/08 11:49:45;;;;;;;3.65;2.08;;;;;;;28.97;37.36;98996.22;4348766;32;32771;-91
2022/06/08 11:52:18;;;;;;;6.28;3.85;;;;;;;29.40;37.06;98996.72;4348052;32;33625;-91
2022/06/08 11:54:59;;;;;;;7.35;3.17;;;;;;;29.04;37.01;98997.91;4347642;32;33181;-91
2022/06/08 11:57:30;;;;;;;3.55;3.25;;;;;;;28.93;37.83;99003.06;4352829;32;32421;-91
2022/06/08 12:00:01;;;;;;;4.75;3.08;;;;;;;29.11;37.82;98997.09;4328249;32;32649;-91
2022/06/08 12:02:41;;;;;;;3.22;2.83;;;;;;;29.27;37.69;98997.53;4353702;32;33949;-91
2022/06/08 12:05:20;;;;;;;3.28;3.00;;;;;;;29.23;38.16;98992.72;4347386;32;33369;-91
2022/06/08 12:08:40;;;;;;;3.45;3.15;;;;;;;29.34;36.87;98998.38;4342916;32;33491;-91
2022/06/08 12:11:23;;;;;;;3.53;2.80;;;;;;;29.68;36.96;98993.00;4359390;32;32563;-91
2022/06/08 12:13:58;;;;;;;4.82;4.43;;;;;;;29.42;37.78;98997.34;4339855;32;33677;-90
2022/06/08 12:16:38;;;;;;;4.20;3.65;;;;;;;29.42;44.36;99001.94;4342256;32;34557;-91
2022/06/08 12:19:15;;;;;;;5.25;4.40;;;;;;;29.74;46.02;99005.75;4346919;32;32929;-91
2022/06/08 12:24:24;;;;;;;4.87;4.47;;;;;;;29.30;47.44;98988.97;4347019;32;35035;-89
2022/06/08 12:27:00;;;;;;;4.22;3.92;;;;;;;29.38;46.42;98989.78;4328032;32;32546;-89
2022/06/08 12:29:37;;;;;;;5.10;3.97;;;;;;;29.72;46.60;98986.94;4353430;32;33040;-89
2022/06/08 12:32:06;;;;;;;4.45;3.92;;;;;;;29.76;45.62;98987.31;4342190;32;33615;-89
2022/06/08 12:34:38;;;;;;;6.25;4.05;;;;;;;29.60;45.62;98985.88;4358852;32;34845;-89
2022/06/08 12:37:30;;;;;;;8.20;3.67;;;;;;;29.11;46.91;98989.78;4343883;32;33548;-89
2022/06/08 12:43:13;;;;;;;4.68;3.50;;;;;;;29.57;45.62;98986.28;4359190;32;33987;-89
2022/06/08 12:45:51;;;;;;;5.18;4.15;;;;;;;29.23;46.82;98993.53;4347254;32;32707;-89
2022/06/08 12:48:26;;;;;;;4.32;3.92;;;;;;;29.78;46.61;98985.25;4352725;32;34409;-89
2022/06/08 12:50:57;;;;;;;4.65;4.25;;;;;;;29.85;45.24;98984.16;4352773;32;32697;-88
2022/06/08 12:53:31;;;;;;;4.50;4.10;;;;;;;30.08;45.21;98986.44;4355342;32;32738;-89